sensor_id;sensor_type;location;lat;lon;timestamp;P1;durP1;ratioP1;P2;durP2;ratioP2
9420;SDS011;4749;51.398;5.466;2022-09-12T00:01:21;11.32;;;9.38;;
9420;SDS011;4749;51.398;5.466;2022-09-12T00:03:54;11.50;;;9.57;;
9420;SDS011;4749;51.398;5.466;2022-09-12T00:06:25;12.15;;;9.52;;
9420;SDS011;4749;51.398;5.466;2022-09-12T00:08:55;11.13;;;9.50;;
9420;SDS011;4749;51.398;5.466;2022-09-12T00:11:25;10.77;;;9.40;;
9420;SDS011;4749;51.398;5.466;2022-09-12T00:13:59;11.85;;;10.25;;
9420;SDS011;4749;51.398;5.466;2022-09-12T00:16:28;11.57;;;10.05;;
9420;SDS011;4749;51.398;5.466;2022-09-12T00:18:59;15.52;;;9.73;;
9420;SDS011;4749;51.398;5.466;2022-09-12T00:21:27;14.60;;;9.18;;
9420;SDS011;4749;51.398;5.466;2022-09-12T00:23:54;11.32;;;9.75;;
9420;SDS011;4749;51.398;5.466;2022-09-12T00:26:22;11.52;;;9.95;;
9420;SDS011;4749;51.398;5.466;2022-09-12T00:28:49;10.32;;;8.93;;
9420;SDS011;4749;51.398;5.466;2022-09-12T00:31:18;10.85;;;8.88;;
9420;SDS011;4749;51.398;5.466;2022-09-12T00:33:49;11.30;;;9.63;;
9420;SDS011;4749;51.398;5.466;2022-09-12T00:36:21;14.10;;;10.05;;
9420;SDS011;4749;51.398;5.466;2022-09-12T00:38:50;12.93;;;9.95;;
9420;SDS011;4749;51.398;5.466;2022-09-12T00:41:51;11.05;;;9.32;;
9420;SDS011;4749;51.398;5.466;2022-09-12T00:54:38;11.68;;;9.25;;
9420;SDS011;4749;51.398;5.466;2022-09-12T00:57:31;10.38;;;9.27;;
9420;SDS011;4749;51.398;5.466;2022-09-12T01:00:10;11.32;;;9.45;;
9420;SDS011;4749;51.398;5.466;2022-09-12T01:02:42;12.70;;;9.80;;
9420;SDS011;4749;51.398;5.466;2022-09-12T01:05:14;12.45;;;9.48;;
9420;SDS011;4749;51.398;5.466;2022-09-12T01:07:42;10.38;;;9.02;;
9420;SDS011;4749;51.398;5.466;2022-09-12T01:10:13;11.68;;;9.75;;
9420;SDS011;4749;51.398;5.466;2022-09-12T01:12:41;16.00;;;11.00;;
9420;SDS011;4749;51.398;5.466;2022-09-12T01:15:10;14.45;;;10.57;;
9420;SDS011;4749;51.398;5.466;2022-09-12T01:17:48;13.77;;;11.30;;
9420;SDS011;4749;51.398;5.466;2022-09-12T01:20:49;13.65;;;10.02;;
9420;SDS011;4749;51.398;5.466;2022-09-12T01:27:22;12.88;;;11.25;;
9420;SDS011;4749;51.398;5.466;2022-09-12T01:39:29;17.52;;;12.57;;
9420;SDS011;4749;51.398;5.466;2022-09-12T01:42:28;14.73;;;12.18;;
9420;SDS011;4749;51.398;5.466;2022-09-12T01:45:26;15.13;;;12.52;;
9420;SDS011;4749;51.398;5.466;2022-09-12T01:54:46;14.52;;;12.35;;
9420;SDS011;4749;51.398;5.466;2022-09-12T01:57:50;13.30;;;11.40;;
9420;SDS011;4749;51.398;5.466;2022-09-12T02:00:31;15.90;;;12.32;;
9420;SDS011;4749;51.398;5.466;2022-09-12T02:03:19;16.25;;;13.02;;
9420;SDS011;4749;51.398;5.466;2022-09-12T02:05:58;14.88;;;12.43;;
9420;SDS011;4749;51.398;5.466;2022-09-12T02:08:41;17.50;;;11.70;;
9420;SDS011;4749;51.398;5.466;2022-09-12T02:11:14;15.82;;;13.73;;
9420;SDS011;4749;51.398;5.466;2022-09-12T02:13:43;16.30;;;13.10;;
9420;SDS011;4749;51.398;5.466;2022-09-12T02:16:39;16.65;;;13.30;;
9420;SDS011;4749;51.398;5.466;2022-09-12T02:19:37;18.42;;;13.40;;
9420;SDS011;4749;51.398;5.466;2022-09-12T02:22:13;17.00;;;13.35;;
9420;SDS011;4749;51.398;5.466;2022-09-12T02:24:47;16.33;;;13.18;;
9420;SDS011;4749;51.398;5.466;2022-09-12T02:27:20;19.23;;;14.57;;
9420;SDS011;4749;51.398;5.466;2022-09-12T02:29:52;18.60;;;15.07;;
9420;SDS011;4749;51.398;5.466;2022-09-12T02:32:25;17.95;;;14.18;;
9420;SDS011;4749;51.398;5.466;2022-09-12T02:35:08;18.60;;;13.95;;
9420;SDS011;4749;51.398;5.466;2022-09-12T02:40:43;22.10;;;14.95;;
9420;SDS011;4749;51.398;5.466;2022-09-12T02:43:10;16.73;;;14.48;;
9420;SDS011;4749;51.398;5.466;2022-09-12T02:45:37;17.98;;;14.73;;
9420;SDS011;4749;51.398;5.466;2022-09-12T02:48:07;18.00;;;14.05;;
9420;SDS011;4749;51.398;5.466;2022-09-12T02:50:46;20.15;;;14.25;;
9420;SDS011;4749;51.398;5.466;2022-09-12T02:53:13;17.65;;;13.95;;
9420;SDS011;4749;51.398;5.466;2022-09-12T02:55:41;18.88;;;14.48;;
9420;SDS011;4749;51.398;5.466;2022-09-12T02:58:10;17.20;;;14.57;;
9420;SDS011;4749;51.398;5.466;2022-09-12T03:06:29;18.20;;;14.80;;
9420;SDS011;4749;51.398;5.466;2022-09-12T03:09:09;20.50;;;16.40;;
9420;SDS011;4749;51.398;5.466;2022-09-12T03:12:19;20.27;;;16.02;;
9420;SDS011;4749;51.398;5.466;2022-09-12T03:21:32;22.63;;;18.25;;
9420;SDS011;4749;51.398;5.466;2022-09-12T03:26:46;24.38;;;17.55;;
9420;SDS011;4749;51.398;5.466;2022-09-12T03:29:24;23.50;;;17.38;;
9420;SDS011;4749;51.398;5.466;2022-09-12T03:31:53;24.17;;;17.25;;
9420;SDS011;4749;51.398;5.466;2022-09-12T03:34:23;22.88;;;16.77;;
9420;SDS011;4749;51.398;5.466;2022-09-12T03:36:53;23.92;;;16.83;;
9420;SDS011;4749;51.398;5.466;2022-09-12T03:39:21;21.02;;;16.73;;
9420;SDS011;4749;51.398;5.466;2022-09-12T03:41:53;22.17;;;16.55;;
9420;SDS011;4749;51.398;5.466;2022-09-12T03:44:21;24.23;;;16.20;;
9420;SDS011;4749;51.398;5.466;2022-09-12T03:46:49;22.25;;;17.25;;
9420;SDS011;4749;51.398;5.466;2022-09-12T03:49:16;20.75;;;16.50;;
9420;SDS011;4749;51.398;5.466;2022-09-12T03:51:43;24.50;;;16.80;;
9420;SDS011;4749;51.398;5.466;2022-09-12T03:54:10;22.70;;;17.42;;
9420;SDS011;4749;51.398;5.466;2022-09-12T03:56:38;20.02;;;15.70;;
9420;SDS011;4749;51.398;5.466;2022-09-12T03:59:08;19.92;;;15.85;;
9420;SDS011;4749;51.398;5.466;2022-09-12T04:01:35;20.65;;;15.77;;
9420;SDS011;4749;51.398;5.466;2022-09-12T04:04:07;22.83;;;15.77;;
9420;SDS011;4749;51.398;5.466;2022-09-12T04:06:35;21.33;;;15.30;;
9420;SDS011;4749;51.398;5.466;2022-09-12T04:09:03;19.23;;;14.32;;
9420;SDS011;4749;51.398;5.466;2022-09-12T04:11:30;23.00;;;16.13;;
9420;SDS011;4749;51.398;5.466;2022-09-12T04:13:57;22.88;;;16.75;;
9420;SDS011;4749;51.398;5.466;2022-09-12T04:16:24;24.75;;;17.08;;
9420;SDS011;4749;51.398;5.466;2022-09-12T04:18:52;25.83;;;18.48;;
9420;SDS011;4749;51.398;5.466;2022-09-12T04:21:20;23.92;;;18.55;;
9420;SDS011;4749;51.398;5.466;2022-09-12T04:23:47;26.55;;;18.13;;
9420;SDS011;4749;51.398;5.466;2022-09-12T04:26:15;24.00;;;17.80;;
9420;SDS011;4749;51.398;5.466;2022-09-12T04:28:44;24.98;;;19.02;;
9420;SDS011;4749;51.398;5.466;2022-09-12T04:31:13;27.98;;;19.73;;
9420;SDS011;4749;51.398;5.466;2022-09-12T04:33:45;24.30;;;17.80;;
9420;SDS011;4749;51.398;5.466;2022-09-12T04:36:14;25.40;;;17.80;;
9420;SDS011;4749;51.398;5.466;2022-09-12T04:38:43;31.45;;;18.98;;
9420;SDS011;4749;51.398;5.466;2022-09-12T04:41:13;28.67;;;19.52;;
9420;SDS011;4749;51.398;5.466;2022-09-12T04:43:46;28.42;;;19.35;;
9420;SDS011;4749;51.398;5.466;2022-09-12T04:46:18;22.88;;;17.38;;
9420;SDS011;4749;51.398;5.466;2022-09-12T04:48:45;27.35;;;18.77;;
9420;SDS011;4749;51.398;5.466;2022-09-12T04:51:19;24.63;;;17.92;;
9420;SDS011;4749;51.398;5.466;2022-09-12T04:54:00;26.40;;;18.70;;
9420;SDS011;4749;51.398;5.466;2022-09-12T04:56:30;24.27;;;18.00;;
9420;SDS011;4749;51.398;5.466;2022-09-12T04:59:00;26.08;;;18.15;;
9420;SDS011;4749;51.398;5.466;2022-09-12T05:01:27;28.90;;;19.75;;
9420;SDS011;4749;51.398;5.466;2022-09-12T05:03:56;31.17;;;19.58;;
9420;SDS011;4749;51.398;5.466;2022-09-12T05:06:28;25.08;;;18.17;;
9420;SDS011;4749;51.398;5.466;2022-09-12T05:08:58;27.83;;;19.48;;
9420;SDS011;4749;51.398;5.466;2022-09-12T05:11:28;24.73;;;17.75;;
9420;SDS011;4749;51.398;5.466;2022-09-12T05:14:19;27.02;;;18.02;;
9420;SDS011;4749;51.398;5.466;2022-09-12T05:16:46;32.47;;;20.30;;
9420;SDS011;4749;51.398;5.466;2022-09-12T05:19:15;26.90;;;18.83;;
9420;SDS011;4749;51.398;5.466;2022-09-12T05:21:42;27.02;;;18.73;;
9420;SDS011;4749;51.398;5.466;2022-09-12T05:24:09;25.23;;;18.85;;
9420;SDS011;4749;51.398;5.466;2022-09-12T05:26:37;26.75;;;18.70;;
9420;SDS011;4749;51.398;5.466;2022-09-12T05:29:04;25.17;;;17.08;;
9420;SDS011;4749;51.398;5.466;2022-09-12T05:31:32;24.08;;;17.45;;
9420;SDS011;4749;51.398;5.466;2022-09-12T05:34:00;23.67;;;17.30;;
9420;SDS011;4749;51.398;5.466;2022-09-12T05:36:32;27.42;;;18.92;;
9420;SDS011;4749;51.398;5.466;2022-09-12T05:39:00;24.42;;;17.92;;
9420;SDS011;4749;51.398;5.466;2022-09-12T05:41:28;26.10;;;18.67;;
9420;SDS011;4749;51.398;5.466;2022-09-12T05:44:02;26.92;;;19.27;;
9420;SDS011;4749;51.398;5.466;2022-09-12T05:46:36;26.17;;;19.35;;
9420;SDS011;4749;51.398;5.466;2022-09-12T05:49:06;28.40;;;20.27;;
9420;SDS011;4749;51.398;5.466;2022-09-12T05:51:37;28.63;;;19.35;;
9420;SDS011;4749;51.398;5.466;2022-09-12T05:54:09;27.00;;;19.33;;
9420;SDS011;4749;51.398;5.466;2022-09-12T05:56:39;27.83;;;19.85;;
9420;SDS011;4749;51.398;5.466;2022-09-12T05:59:12;30.35;;;20.83;;
9420;SDS011;4749;51.398;5.466;2022-09-12T06:01:45;30.45;;;21.33;;
9420;SDS011;4749;51.398;5.466;2022-09-12T06:04:14;30.52;;;21.08;;
9420;SDS011;4749;51.398;5.466;2022-09-12T06:06:42;28.90;;;20.92;;
9420;SDS011;4749;51.398;5.466;2022-09-12T06:09:11;28.73;;;21.13;;
9420;SDS011;4749;51.398;5.466;2022-09-12T06:11:40;28.90;;;20.50;;
9420;SDS011;4749;51.398;5.466;2022-09-12T06:14:08;30.55;;;21.10;;
9420;SDS011;4749;51.398;5.466;2022-09-12T06:16:41;26.52;;;20.13;;
9420;SDS011;4749;51.398;5.466;2022-09-12T06:19:12;25.73;;;19.17;;
9420;SDS011;4749;51.398;5.466;2022-09-12T06:21:53;26.10;;;20.30;;
9420;SDS011;4749;51.398;5.466;2022-09-12T06:24:20;26.50;;;20.20;;
9420;SDS011;4749;51.398;5.466;2022-09-12T06:26:48;31.33;;;20.27;;
9420;SDS011;4749;51.398;5.466;2022-09-12T06:29:17;26.92;;;20.10;;
9420;SDS011;4749;51.398;5.466;2022-09-12T06:31:47;30.60;;;20.85;;
9420;SDS011;4749;51.398;5.466;2022-09-12T06:34:15;28.52;;;19.65;;
9420;SDS011;4749;51.398;5.466;2022-09-12T06:36:43;30.20;;;21.15;;
9420;SDS011;4749;51.398;5.466;2022-09-12T06:39:13;27.20;;;20.52;;
9420;SDS011;4749;51.398;5.466;2022-09-12T06:41:43;29.35;;;20.02;;
9420;SDS011;4749;51.398;5.466;2022-09-12T06:44:12;29.52;;;20.98;;
9420;SDS011;4749;51.398;5.466;2022-09-12T06:46:42;32.28;;;21.92;;
9420;SDS011;4749;51.398;5.466;2022-09-12T06:49:10;28.73;;;20.95;;
9420;SDS011;4749;51.398;5.466;2022-09-12T06:51:37;30.98;;;20.85;;
9420;SDS011;4749;51.398;5.466;2022-09-12T06:54:07;29.35;;;21.65;;
9420;SDS011;4749;51.398;5.466;2022-09-12T06:56:37;30.05;;;21.08;;
9420;SDS011;4749;51.398;5.466;2022-09-12T06:59:04;29.13;;;20.38;;
9420;SDS011;4749;51.398;5.466;2022-09-12T07:01:31;28.58;;;20.40;;
9420;SDS011;4749;51.398;5.466;2022-09-12T07:03:59;28.55;;;19.98;;
9420;SDS011;4749;51.398;5.466;2022-09-12T07:06:30;25.23;;;20.25;;
9420;SDS011;4749;51.398;5.466;2022-09-12T07:09:04;28.17;;;19.80;;
9420;SDS011;4749;51.398;5.466;2022-09-12T07:11:36;23.75;;;19.20;;
9420;SDS011;4749;51.398;5.466;2022-09-12T07:14:05;28.88;;;20.17;;
9420;SDS011;4749;51.398;5.466;2022-09-12T07:16:34;27.92;;;20.20;;
9420;SDS011;4749;51.398;5.466;2022-09-12T07:19:02;24.95;;;19.77;;
9420;SDS011;4749;51.398;5.466;2022-09-12T07:21:32;31.40;;;19.75;;
9420;SDS011;4749;51.398;5.466;2022-09-12T07:24:05;25.42;;;19.63;;
9420;SDS011;4749;51.398;5.466;2022-09-12T07:26:34;26.17;;;19.77;;
9420;SDS011;4749;51.398;5.466;2022-09-12T07:29:02;27.30;;;19.35;;
9420;SDS011;4749;51.398;5.466;2022-09-12T07:31:50;25.63;;;19.20;;
9420;SDS011;4749;51.398;5.466;2022-09-12T07:34:17;24.00;;;18.75;;
9420;SDS011;4749;51.398;5.466;2022-09-12T07:36:44;27.05;;;19.05;;
9420;SDS011;4749;51.398;5.466;2022-09-12T07:39:11;25.85;;;18.38;;
9420;SDS011;4749;51.398;5.466;2022-09-12T07:41:38;25.95;;;19.73;;
9420;SDS011;4749;51.398;5.466;2022-09-12T07:44:05;26.10;;;18.90;;
9420;SDS011;4749;51.398;5.466;2022-09-12T07:46:32;30.08;;;20.77;;
9420;SDS011;4749;51.398;5.466;2022-09-12T07:49:00;23.33;;;18.60;;
9420;SDS011;4749;51.398;5.466;2022-09-12T07:51:28;23.85;;;18.35;;
9420;SDS011;4749;51.398;5.466;2022-09-12T07:53:56;24.55;;;18.58;;
9420;SDS011;4749;51.398;5.466;2022-09-12T07:56:24;22.92;;;18.23;;
9420;SDS011;4749;51.398;5.466;2022-09-12T07:58:57;22.67;;;18.13;;
9420;SDS011;4749;51.398;5.466;2022-09-12T08:01:24;23.40;;;18.48;;
9420;SDS011;4749;51.398;5.466;2022-09-12T08:03:53;20.42;;;17.13;;
9420;SDS011;4749;51.398;5.466;2022-09-12T08:06:23;21.10;;;17.42;;
9420;SDS011;4749;51.398;5.466;2022-09-12T08:08:53;22.23;;;17.38;;
9420;SDS011;4749;51.398;5.466;2022-09-12T08:11:24;20.05;;;16.70;;
9420;SDS011;4749;51.398;5.466;2022-09-12T08:13:54;18.35;;;15.63;;
9420;SDS011;4749;51.398;5.466;2022-09-12T08:16:32;19.77;;;15.80;;
9420;SDS011;4749;51.398;5.466;2022-09-12T08:19:01;20.10;;;15.40;;
9420;SDS011;4749;51.398;5.466;2022-09-12T08:21:30;19.85;;;15.73;;
9420;SDS011;4749;51.398;5.466;2022-09-12T08:24:00;17.10;;;14.65;;
9420;SDS011;4749;51.398;5.466;2022-09-12T08:26:29;17.00;;;13.63;;
9420;SDS011;4749;51.398;5.466;2022-09-12T08:28:58;19.35;;;15.00;;
9420;SDS011;4749;51.398;5.466;2022-09-12T08:31:26;16.83;;;14.65;;
9420;SDS011;4749;51.398;5.466;2022-09-12T08:33:54;18.63;;;14.77;;
9420;SDS011;4749;51.398;5.466;2022-09-12T08:36:23;15.32;;;13.73;;
9420;SDS011;4749;51.398;5.466;2022-09-12T08:38:54;18.85;;;13.88;;
9420;SDS011;4749;51.398;5.466;2022-09-12T08:41:48;18.75;;;14.10;;
9420;SDS011;4749;51.398;5.466;2022-09-12T08:47:26;16.83;;;12.88;;
9420;SDS011;4749;51.398;5.466;2022-09-12T08:52:56;15.50;;;12.45;;
9420;SDS011;4749;51.398;5.466;2022-09-12T08:55:40;12.70;;;11.32;;
9420;SDS011;4749;51.398;5.466;2022-09-12T08:58:20;13.50;;;10.85;;
9420;SDS011;4749;51.398;5.466;2022-09-12T09:00:52;13.45;;;12.05;;
9420;SDS011;4749;51.398;5.466;2022-09-12T09:18:52;14.65;;;8.02;;
9420;SDS011;4749;51.398;5.466;2022-09-12T09:21:27;9.48;;;8.48;;
9420;SDS011;4749;51.398;5.466;2022-09-12T09:24:01;9.02;;;7.72;;
9420;SDS011;4749;51.398;5.466;2022-09-12T09:26:40;11.85;;;7.78;;
9420;SDS011;4749;51.398;5.466;2022-09-12T09:29:18;10.63;;;7.50;;
9420;SDS011;4749;51.398;5.466;2022-09-12T09:31:53;8.70;;;7.38;;
9420;SDS011;4749;51.398;5.466;2022-09-12T09:34:24;7.75;;;6.72;;
9420;SDS011;4749;51.398;5.466;2022-09-12T09:37:01;8.13;;;6.93;;
9420;SDS011;4749;51.398;5.466;2022-09-12T09:45:45;10.30;;;6.38;;
9420;SDS011;4749;51.398;5.466;2022-09-12T09:48:20;7.82;;;6.55;;
9420;SDS011;4749;51.398;5.466;2022-09-12T09:50:52;7.15;;;6.43;;
9420;SDS011;4749;51.398;5.466;2022-09-12T09:54:08;7.45;;;6.63;;
9420;SDS011;4749;51.398;5.466;2022-09-12T09:56:42;7.35;;;6.55;;
9420;SDS011;4749;51.398;5.466;2022-09-12T09:59:11;6.97;;;5.78;;
9420;SDS011;4749;51.398;5.466;2022-09-12T10:04:30;7.72;;;6.88;;
9420;SDS011;4749;51.398;5.466;2022-09-12T10:07:11;7.70;;;6.85;;
9420;SDS011;4749;51.398;5.466;2022-09-12T10:12:40;8.88;;;6.05;;
9420;SDS011;4749;51.398;5.466;2022-09-12T10:18:00;6.65;;;5.47;;
9420;SDS011;4749;51.398;5.466;2022-09-12T10:25:45;5.38;;;4.57;;
9420;SDS011;4749;51.398;5.466;2022-09-12T10:28:36;5.18;;;4.68;;
9420;SDS011;4749;51.398;5.466;2022-09-12T10:31:15;3.75;;;3.28;;
9420;SDS011;4749;51.398;5.466;2022-09-12T10:34:00;3.85;;;3.20;;
9420;SDS011;4749;51.398;5.466;2022-09-12T10:36:34;7.55;;;3.10;;
9420;SDS011;4749;51.398;5.466;2022-09-12T10:39:04;4.82;;;3.25;;
9420;SDS011;4749;51.398;5.466;2022-09-12T10:41:35;4.53;;;3.63;;
9420;SDS011;4749;51.398;5.466;2022-09-12T10:44:13;4.72;;;3.35;;
9420;SDS011;4749;51.398;5.466;2022-09-12T10:46:57;4.00;;;3.60;;
9420;SDS011;4749;51.398;5.466;2022-09-12T10:49:45;6.88;;;3.28;;
9420;SDS011;4749;51.398;5.466;2022-09-12T10:52:16;4.35;;;2.85;;
9420;SDS011;4749;51.398;5.466;2022-09-12T10:54:50;4.35;;;3.65;;
9420;SDS011;4749;51.398;5.466;2022-09-12T10:57:28;3.90;;;2.90;;
9420;SDS011;4749;51.398;5.466;2022-09-12T11:00:16;4.25;;;3.05;;
9420;SDS011;4749;51.398;5.466;2022-09-12T11:03:04;4.25;;;3.45;;
9420;SDS011;4749;51.398;5.466;2022-09-12T11:06:07;3.53;;;3.05;;
9420;SDS011;4749;51.398;5.466;2022-09-12T11:11:32;4.85;;;2.95;;
9420;SDS011;4749;51.398;5.466;2022-09-12T11:17:32;2.53;;;2.30;;
9420;SDS011;4749;51.398;5.466;2022-09-12T11:20:23;5.15;;;3.20;;
9420;SDS011;4749;51.398;5.466;2022-09-12T11:34:01;5.60;;;2.63;;
9420;SDS011;4749;51.398;5.466;2022-09-12T11:39:43;2.60;;;2.40;;
9420;SDS011;4749;51.398;5.466;2022-09-12T11:42:25;3.00;;;2.70;;
9420;SDS011;4749;51.398;5.466;2022-09-12T11:45:24;4.82;;;3.08;;
9420;SDS011;4749;51.398;5.466;2022-09-12T11:48:00;3.45;;;2.30;;
9420;SDS011;4749;51.398;5.466;2022-09-12T11:50:37;2.55;;;2.22;;
9420;SDS011;4749;51.398;5.466;2022-09-12T11:53:18;2.95;;;2.60;;
9420;SDS011;4749;51.398;5.466;2022-09-12T11:56:07;5.47;;;2.78;;
9420;SDS011;4749;51.398;5.466;2022-09-12T11:58:52;4.63;;;2.95;;
9420;SDS011;4749;51.398;5.466;2022-09-12T12:01:37;4.47;;;2.35;;
9420;SDS011;4749;51.398;5.466;2022-09-12T12:04:14;3.13;;;2.40;;
9420;SDS011;4749;51.398;5.466;2022-09-12T12:06:51;5.03;;;2.30;;
9420;SDS011;4749;51.398;5.466;2022-09-12T12:09:29;4.10;;;2.38;;
9420;SDS011;4749;51.398;5.466;2022-09-12T12:11:57;4.18;;;2.90;;
9420;SDS011;4749;51.398;5.466;2022-09-12T12:14:37;3.13;;;2.05;;
9420;SDS011;4749;51.398;5.466;2022-09-12T12:17:19;3.15;;;2.20;;
9420;SDS011;4749;51.398;5.466;2022-09-12T12:19:59;3.22;;;2.00;;
9420;SDS011;4749;51.398;5.466;2022-09-12T12:22:34;5.25;;;2.17;;
9420;SDS011;4749;51.398;5.466;2022-09-12T12:27:48;2.67;;;2.03;;
9420;SDS011;4749;51.398;5.466;2022-09-12T12:35:42;2.33;;;2.05;;
9420;SDS011;4749;51.398;5.466;2022-09-12T12:38:34;3.70;;;2.17;;
9420;SDS011;4749;51.398;5.466;2022-09-12T12:43:52;5.32;;;2.17;;
9420;SDS011;4749;51.398;5.466;2022-09-12T12:46:24;2.60;;;1.83;;
9420;SDS011;4749;51.398;5.466;2022-09-12T12:52:01;2.97;;;1.77;;
9420;SDS011;4749;51.398;5.466;2022-09-12T12:54:33;2.00;;;1.80;;
9420;SDS011;4749;51.398;5.466;2022-09-12T12:57:05;2.15;;;1.88;;
9420;SDS011;4749;51.398;5.466;2022-09-12T13:05:39;2.28;;;1.70;;
9420;SDS011;4749;51.398;5.466;2022-09-12T13:10:53;2.78;;;1.75;;
9420;SDS011;4749;51.398;5.466;2022-09-12T13:13:41;1.58;;;1.42;;
9420;SDS011;4749;51.398;5.466;2022-09-12T13:16:34;2.45;;;1.75;;
9420;SDS011;4749;51.398;5.466;2022-09-12T13:19:14;2.05;;;1.60;;
9420;SDS011;4749;51.398;5.466;2022-09-12T13:22:01;1.98;;;1.75;;
9420;SDS011;4749;51.398;5.466;2022-09-12T13:24:32;1.80;;;1.65;;
9420;SDS011;4749;51.398;5.466;2022-09-12T13:27:21;2.35;;;1.40;;
9420;SDS011;4749;51.398;5.466;2022-09-12T13:30:13;2.20;;;1.50;;
9420;SDS011;4749;51.398;5.466;2022-09-12T13:32:41;1.67;;;1.52;;
9420;SDS011;4749;51.398;5.466;2022-09-12T13:35:12;2.28;;;1.60;;
9420;SDS011;4749;51.398;5.466;2022-09-12T13:44:24;3.10;;;1.80;;
9420;SDS011;4749;51.398;5.466;2022-09-12T13:46:57;2.05;;;1.85;;
9420;SDS011;4749;51.398;5.466;2022-09-12T13:49:28;2.78;;;1.77;;
9420;SDS011;4749;51.398;5.466;2022-09-12T13:52:04;1.90;;;1.63;;
9420;SDS011;4749;51.398;5.466;2022-09-12T13:54:49;3.83;;;1.50;;
9420;SDS011;4749;51.398;5.466;2022-09-12T13:57:28;2.55;;;1.60;;
9420;SDS011;4749;51.398;5.466;2022-09-12T14:00:18;2.38;;;1.52;;
9420;SDS011;4749;51.398;5.466;2022-09-12T14:02:46;2.30;;;1.70;;
9420;SDS011;4749;51.398;5.466;2022-09-12T14:05:20;2.28;;;1.60;;
9420;SDS011;4749;51.398;5.466;2022-09-12T14:07:57;1.70;;;1.30;;
9420;SDS011;4749;51.398;5.466;2022-09-12T14:10:33;3.65;;;1.60;;
9420;SDS011;4749;51.398;5.466;2022-09-12T14:13:10;1.48;;;1.38;;
9420;SDS011;4749;51.398;5.466;2022-09-12T14:15:45;2.30;;;1.38;;
9420;SDS011;4749;51.398;5.466;2022-09-12T14:18:31;2.25;;;1.58;;
9420;SDS011;4749;51.398;5.466;2022-09-12T14:21:10;2.92;;;1.55;;
9420;SDS011;4749;51.398;5.466;2022-09-12T14:23:51;2.13;;;1.63;;
9420;SDS011;4749;51.398;5.466;2022-09-12T14:26:20;3.25;;;1.30;;
9420;SDS011;4749;51.398;5.466;2022-09-12T14:28:47;2.60;;;1.40;;
9420;SDS011;4749;51.398;5.466;2022-09-12T14:33:50;2.30;;;1.27;;
9420;SDS011;4749;51.398;5.466;2022-09-12T14:36:26;1.70;;;1.20;;
9420;SDS011;4749;51.398;5.466;2022-09-12T14:39:00;1.67;;;1.23;;
9420;SDS011;4749;51.398;5.466;2022-09-12T14:41:35;3.35;;;1.25;;
9420;SDS011;4749;51.398;5.466;2022-09-12T14:44:14;3.63;;;1.50;;
9420;SDS011;4749;51.398;5.466;2022-09-12T14:46:56;1.40;;;1.30;;
9420;SDS011;4749;51.398;5.466;2022-09-12T14:49:37;1.73;;;1.40;;
9420;SDS011;4749;51.398;5.466;2022-09-12T14:52:05;1.73;;;1.60;;
9420;SDS011;4749;51.398;5.466;2022-09-12T14:55:22;1.50;;;1.25;;
9420;SDS011;4749;51.398;5.466;2022-09-12T14:57:46;1.60;;;1.40;;
9420;SDS011;4749;51.398;5.466;2022-09-12T15:00:16;1.58;;;1.48;;
9420;SDS011;4749;51.398;5.466;2022-09-12T15:02:48;1.77;;;1.30;;
9420;SDS011;4749;51.398;5.466;2022-09-12T15:05:19;2.92;;;1.40;;
9420;SDS011;4749;51.398;5.466;2022-09-12T15:10:34;2.05;;;1.33;;
9420;SDS011;4749;51.398;5.466;2022-09-12T15:15:37;1.63;;;1.45;;
9420;SDS011;4749;51.398;5.466;2022-09-12T15:18:07;2.10;;;1.40;;
9420;SDS011;4749;51.398;5.466;2022-09-12T15:20:35;1.48;;;1.38;;
9420;SDS011;4749;51.398;5.466;2022-09-12T15:23:05;1.50;;;1.40;;
9420;SDS011;4749;51.398;5.466;2022-09-12T15:25:59;1.70;;;1.55;;
9420;SDS011;4749;51.398;5.466;2022-09-12T15:28:28;1.85;;;1.40;;
9420;SDS011;4749;51.398;5.466;2022-09-12T15:31:03;2.13;;;1.40;;
9420;SDS011;4749;51.398;5.466;2022-09-12T15:33:36;4.38;;;1.52;;
9420;SDS011;4749;51.398;5.466;2022-09-12T15:36:04;1.83;;;1.40;;
9420;SDS011;4749;51.398;5.466;2022-09-12T15:38:41;1.83;;;1.25;;
9420;SDS011;4749;51.398;5.466;2022-09-12T15:41:14;2.75;;;1.50;;
9420;SDS011;4749;51.398;5.466;2022-09-12T15:43:52;2.63;;;1.58;;
9420;SDS011;4749;51.398;5.466;2022-09-12T15:46:20;1.70;;;1.30;;
9420;SDS011;4749;51.398;5.466;2022-09-12T15:48:47;3.50;;;1.60;;
9420;SDS011;4749;51.398;5.466;2022-09-12T15:51:19;2.38;;;1.45;;
9420;SDS011;4749;51.398;5.466;2022-09-12T15:53:48;2.03;;;1.50;;
9420;SDS011;4749;51.398;5.466;2022-09-12T15:56:17;1.83;;;1.23;;
9420;SDS011;4749;51.398;5.466;2022-09-12T15:58:47;1.65;;;1.20;;
9420;SDS011;4749;51.398;5.466;2022-09-12T16:01:24;4.15;;;1.45;;
9420;SDS011;4749;51.398;5.466;2022-09-12T16:03:52;2.25;;;1.50;;
9420;SDS011;4749;51.398;5.466;2022-09-12T16:06:19;1.92;;;1.30;;
9420;SDS011;4749;51.398;5.466;2022-09-12T16:08:47;1.23;;;1.08;;
9420;SDS011;4749;51.398;5.466;2022-09-12T16:13:50;1.40;;;1.30;;
9420;SDS011;4749;51.398;5.466;2022-09-12T16:16:19;2.92;;;1.75;;
9420;SDS011;4749;51.398;5.466;2022-09-12T16:18:46;1.88;;;1.58;;
9420;SDS011;4749;51.398;5.466;2022-09-12T16:21:14;3.00;;;1.60;;
9420;SDS011;4749;51.398;5.466;2022-09-12T16:23:44;3.17;;;1.40;;
9420;SDS011;4749;51.398;5.466;2022-09-12T16:26:13;1.73;;;1.33;;
9420;SDS011;4749;51.398;5.466;2022-09-12T16:28:42;2.30;;;1.50;;
9420;SDS011;4749;51.398;5.466;2022-09-12T16:31:10;1.63;;;1.33;;
9420;SDS011;4749;51.398;5.466;2022-09-12T16:33:39;1.50;;;1.35;;
9420;SDS011;4749;51.398;5.466;2022-09-12T16:36:11;2.72;;;1.50;;
9420;SDS011;4749;51.398;5.466;2022-09-12T16:38:51;4.03;;;3.45;;
9420;SDS011;4749;51.398;5.466;2022-09-12T16:41:22;2.38;;;1.60;;
9420;SDS011;4749;51.398;5.466;2022-09-12T16:43:52;3.30;;;2.00;;
9420;SDS011;4749;51.398;5.466;2022-09-12T16:46:24;2.05;;;1.63;;
9420;SDS011;4749;51.398;5.466;2022-09-12T16:48:56;2.88;;;1.60;;
9420;SDS011;4749;51.398;5.466;2022-09-12T16:51:25;3.42;;;1.98;;
9420;SDS011;4749;51.398;5.466;2022-09-12T16:53:58;3.05;;;1.70;;
9420;SDS011;4749;51.398;5.466;2022-09-12T16:56:25;9.07;;;6.75;;
9420;SDS011;4749;51.398;5.466;2022-09-12T16:58:53;3.03;;;2.20;;
9420;SDS011;4749;51.398;5.466;2022-09-12T17:01:21;4.28;;;2.70;;
9420;SDS011;4749;51.398;5.466;2022-09-12T17:03:51;5.57;;;3.58;;
9420;SDS011;4749;51.398;5.466;2022-09-12T17:06:24;5.50;;;1.90;;
9420;SDS011;4749;51.398;5.466;2022-09-12T17:08:52;2.33;;;1.80;;
9420;SDS011;4749;51.398;5.466;2022-09-12T17:11:24;2.58;;;1.58;;
9420;SDS011;4749;51.398;5.466;2022-09-12T17:13:59;2.20;;;1.95;;
9420;SDS011;4749;51.398;5.466;2022-09-12T17:16:35;4.82;;;3.50;;
9420;SDS011;4749;51.398;5.466;2022-09-12T17:19:16;2.83;;;2.22;;
9420;SDS011;4749;51.398;5.466;2022-09-12T17:21:57;2.65;;;2.17;;
9420;SDS011;4749;51.398;5.466;2022-09-12T17:24:24;2.92;;;1.83;;
9420;SDS011;4749;51.398;5.466;2022-09-12T17:26:51;3.20;;;2.70;;
9420;SDS011;4749;51.398;5.466;2022-09-12T17:29:19;2.45;;;2.05;;
9420;SDS011;4749;51.398;5.466;2022-09-12T17:31:46;2.42;;;2.13;;
9420;SDS011;4749;51.398;5.466;2022-09-12T17:34:14;4.80;;;2.33;;
9420;SDS011;4749;51.398;5.466;2022-09-12T17:36:43;2.47;;;1.83;;
9420;SDS011;4749;51.398;5.466;2022-09-12T17:39:11;3.00;;;1.65;;
9420;SDS011;4749;51.398;5.466;2022-09-12T17:41:39;3.00;;;1.90;;
9420;SDS011;4749;51.398;5.466;2022-09-12T17:44:09;3.58;;;1.90;;
9420;SDS011;4749;51.398;5.466;2022-09-12T17:46:39;2.28;;;1.80;;
9420;SDS011;4749;51.398;5.466;2022-09-12T17:49:09;5.20;;;1.85;;
9420;SDS011;4749;51.398;5.466;2022-09-12T17:51:39;2.72;;;1.73;;
9420;SDS011;4749;51.398;5.466;2022-09-12T17:54:11;3.40;;;1.75;;
9420;SDS011;4749;51.398;5.466;2022-09-12T17:56:44;2.92;;;1.58;;
9420;SDS011;4749;51.398;5.466;2022-09-12T17:59:13;3.03;;;2.00;;
9420;SDS011;4749;51.398;5.466;2022-09-12T18:01:46;2.47;;;1.70;;
9420;SDS011;4749;51.398;5.466;2022-09-12T18:04:32;3.45;;;2.00;;
9420;SDS011;4749;51.398;5.466;2022-09-12T18:06:59;1.73;;;1.63;;
9420;SDS011;4749;51.398;5.466;2022-09-12T18:09:26;2.05;;;1.80;;